DAL1937 KATL-MROC
Flight info
| Callsign | DAL1937 |
|---|---|
| Flight time | 3h 25m |
| Altitude | 35000 |
| Route | SMLTZ3 WALET DCT ZPLEN Q79 VAULT/N0459F360 Q79 MCLAW Y442 FUNDI/N0465F350 UM335 ALVEK UM328 SELEK UZ403 PIRAS BARRA3P |
| Aircraft | B752/M-SDE2E3FGHIJ3J4J7RWXY/LB1 |
Departure
| Time | 2026-05-04 14:35 |
|---|---|
| Airport | Hartsfield Jackson Atlanta International Airport (KATL) |
Arrival
| Time | 2026-05-04 18:01 |
|---|---|
| Airport | Juan Santamaría International Airport (MROC) |
| Time | Latitude | Longitude | Altitude | Speed | Heading |
|---|---|---|---|---|---|
| 2026-05-04 14:12 | 33.64365 | -84.42876 | 1005 ft | 0 kts | 245° |
| 2026-05-04 14:25 | 33.64366 | -84.42872 | 1004 ft | 2 kts | 245° |
| 2026-05-04 14:25 | 33.64375 | -84.42838 | 1003 ft | 2 kts | 282° |
| 2026-05-04 14:25 | 33.64369 | -84.42821 | 1003 ft | 2 kts | 309° |
| 2026-05-04 14:26 | 33.64357 | -84.42810 | 1003 ft | 2 kts | 337° |
| 2026-05-04 14:26 | 33.64347 | -84.42806 | 1003 ft | 0 kts | 358° |
| 2026-05-04 14:26 | 33.64340 | -84.42807 | 1003 ft | 0 kts | 0° |
| 2026-05-04 14:28 | 33.64360 | -84.42807 | 1003 ft | 7 kts | 359° |
| 2026-05-04 14:29 | 33.64512 | -84.42761 | 1001 ft | 11 kts | 36° |
| 2026-05-04 14:29 | 33.64541 | -84.42566 | 996 ft | 13 kts | 90° |
| 2026-05-04 14:30 | 33.64539 | -84.42442 | 992 ft | 15 kts | 89° |
| 2026-05-04 14:30 | 33.64540 | -84.42303 | 988 ft | 17 kts | 91° |
| 2026-05-04 14:30 | 33.64540 | -84.41998 | 981 ft | 19 kts | 89° |
| 2026-05-04 14:31 | 33.64540 | -84.41836 | 978 ft | 19 kts | 92° |
| 2026-05-04 14:31 | 33.64540 | -84.41698 | 976 ft | 19 kts | 90° |
| 2026-05-04 14:32 | 33.64540 | -84.41483 | 976 ft | 17 kts | 90° |
| 2026-05-04 14:32 | 33.64539 | -84.41340 | 976 ft | 16 kts | 94° |
| 2026-05-04 14:32 | 33.64539 | -84.41210 | 976 ft | 14 kts | 88° |
| 2026-05-04 14:32 | 33.64540 | -84.41092 | 976 ft | 13 kts | 90° |
| 2026-05-04 14:33 | 33.64540 | -84.40981 | 976 ft | 14 kts | 90° |
| 2026-05-04 14:33 | 33.64539 | -84.40843 | 975 ft | 16 kts | 93° |
| 2026-05-04 14:33 | 33.64568 | -84.40725 | 975 ft | 14 kts | 81° |
| 2026-05-04 14:33 | 33.64573 | -84.40614 | 974 ft | 12 kts | 72° |
| 2026-05-04 14:34 | 33.64637 | -84.40568 | 975 ft | 10 kts | 359° |
| 2026-05-04 14:34 | 33.64677 | -84.40601 | 976 ft | 6 kts | 281° |
| 2026-05-04 14:34 | 33.64678 | -84.40654 | 977 ft | 9 kts | 269° |
| 2026-05-04 14:34 | 33.64678 | -84.40916 | 979 ft | 58 kts | 270° |
| 2026-05-04 14:35 | 33.64677 | -84.41630 | 978 ft | 112 kts | 271° |
| 2026-05-04 14:35 | 33.64678 | -84.42770 | 1013 ft | 156 kts | 269° |
| 2026-05-04 14:35 | 33.64682 | -84.44180 | 1235 ft | 181 kts | 269° |
| 2026-05-04 14:35 | 33.64685 | -84.45664 | 1993 ft | 179 kts | 274° |
| 2026-05-04 14:36 | 33.64919 | -84.47145 | 2506 ft | 185 kts | 282° |
| 2026-05-04 14:36 | 33.65224 | -84.48722 | 2778 ft | 202 kts | 281° |
| 2026-05-04 14:36 | 33.65540 | -84.50414 | 3097 ft | 218 kts | 282° |
| 2026-05-04 14:36 | 33.65896 | -84.52311 | 3388 ft | 239 kts | 281° |
| 2026-05-04 14:37 | 33.66267 | -84.54315 | 3852 ft | 254 kts | 282° |
| 2026-05-04 14:37 | 33.66651 | -84.56422 | 4429 ft | 263 kts | 279° |
| 2026-05-04 14:37 | 33.66596 | -84.58611 | 5166 ft | 266 kts | 252° |
| 2026-05-04 14:37 | 33.65804 | -84.60582 | 5983 ft | 266 kts | 242° |
| 2026-05-04 14:38 | 33.64906 | -84.62547 | 6624 ft | 271 kts | 243° |
| 2026-05-04 14:38 | 33.63979 | -84.64535 | 7322 ft | 273 kts | 238° |
| 2026-05-04 14:38 | 33.62613 | -84.66196 | 7920 ft | 281 kts | 214° |
| 2026-05-04 14:38 | 33.60908 | -84.67413 | 8624 ft | 284 kts | 212° |
| 2026-05-04 14:39 | 33.59176 | -84.68645 | 9315 ft | 288 kts | 209° |
| 2026-05-04 14:39 | 33.57263 | -84.69371 | 9979 ft | 294 kts | 183° |
| 2026-05-04 14:39 | 33.55209 | -84.69175 | 10731 ft | 296 kts | 171° |
| 2026-05-04 14:40 | 33.51092 | -84.68472 | 12037 ft | 302 kts | 172° |
| 2026-05-04 14:40 | 33.49010 | -84.68096 | 12627 ft | 306 kts | 172° |
| 2026-05-04 14:40 | 33.46880 | -84.67705 | 13215 ft | 310 kts | 172° |
| 2026-05-04 14:40 | 33.44740 | -84.67306 | 13782 ft | 315 kts | 173° |
| 2026-05-04 14:41 | 33.42547 | -84.66639 | 13967 ft | 335 kts | 158° |
| 2026-05-04 14:41 | 33.40457 | -84.65126 | 14067 ft | 358 kts | 140° |
| 2026-05-04 14:41 | 33.36741 | -84.60659 | 14295 ft | 398 kts | 135° |
| 2026-05-04 14:42 | 33.32748 | -84.55895 | 15384 ft | 409 kts | 135° |
| 2026-05-04 14:42 | 33.30723 | -84.53497 | 15933 ft | 414 kts | 135° |
| 2026-05-04 14:42 | 33.28643 | -84.51041 | 16469 ft | 419 kts | 135° |
| 2026-05-04 14:43 | 33.26562 | -84.48586 | 16959 ft | 424 kts | 136° |
| 2026-05-04 14:43 | 33.24432 | -84.46079 | 17506 ft | 428 kts | 135° |
| 2026-05-04 14:43 | 33.22276 | -84.43542 | 17969 ft | 433 kts | 136° |
| 2026-05-04 14:43 | 33.20117 | -84.41003 | 18414 ft | 438 kts | 136° |
| 2026-05-04 14:44 | 33.17933 | -84.38438 | 18969 ft | 440 kts | 136° |
| 2026-05-04 14:44 | 33.15744 | -84.35869 | 19403 ft | 445 kts | 136° |
| 2026-05-04 14:44 | 33.13514 | -84.33253 | 19921 ft | 448 kts | 137° |
| 2026-05-04 14:44 | 33.11262 | -84.30613 | 20399 ft | 451 kts | 137° |
| 2026-05-04 14:45 | 33.09023 | -84.27993 | 20862 ft | 455 kts | 137° |
| 2026-05-04 14:45 | 33.06738 | -84.25318 | 21334 ft | 459 kts | 137° |
| 2026-05-04 14:45 | 33.04431 | -84.22616 | 21820 ft | 462 kts | 137° |
| 2026-05-04 14:45 | 33.02095 | -84.19994 | 22193 ft | 466 kts | 143° |
| 2026-05-04 14:46 | 32.99433 | -84.17777 | 22714 ft | 463 kts | 153° |
| 2026-05-04 14:46 | 32.96536 | -84.16122 | 23134 ft | 461 kts | 163° |
| 2026-05-04 14:46 | 32.93531 | -84.14796 | 23562 ft | 464 kts | 164° |
| 2026-05-04 14:46 | 32.90459 | -84.13471 | 24004 ft | 466 kts | 165° |
| 2026-05-04 14:47 | 32.87312 | -84.12141 | 24445 ft | 468 kts | 165° |
| 2026-05-04 14:47 | 32.84133 | -84.10815 | 24838 ft | 472 kts | 165° |
| 2026-05-04 14:47 | 32.81033 | -84.09529 | 25240 ft | 474 kts | 165° |
| 2026-05-04 14:47 | 32.77857 | -84.08218 | 25640 ft | 476 kts | 165° |
| 2026-05-04 14:48 | 32.74749 | -84.06937 | 25963 ft | 480 kts | 165° |
| 2026-05-04 14:48 | 32.71563 | -84.05628 | 26382 ft | 481 kts | 165° |
| 2026-05-04 14:48 | 32.68378 | -84.04321 | 26682 ft | 484 kts | 165° |
| 2026-05-04 14:48 | 32.65128 | -84.02988 | 27102 ft | 485 kts | 166° |
| 2026-05-04 14:49 | 32.61920 | -84.01675 | 27468 ft | 487 kts | 166° |
| 2026-05-04 14:49 | 32.58694 | -84.00356 | 27737 ft | 491 kts | 166° |
| 2026-05-04 14:49 | 32.55463 | -83.99034 | 28139 ft | 491 kts | 166° |
| 2026-05-04 14:49 | 32.52207 | -83.97704 | 28423 ft | 494 kts | 166° |
| 2026-05-04 14:50 | 32.48914 | -83.96361 | 28742 ft | 497 kts | 166° |
| 2026-05-04 14:50 | 32.45612 | -83.95014 | 29081 ft | 498 kts | 166° |
| 2026-05-04 14:50 | 32.42334 | -83.93677 | 29386 ft | 501 kts | 166° |
| 2026-05-04 14:50 | 32.39006 | -83.92324 | 29664 ft | 503 kts | 166° |
| 2026-05-04 14:51 | 32.35660 | -83.90989 | 29958 ft | 504 kts | 168° |
| 2026-05-04 14:51 | 32.32284 | -83.89784 | 30286 ft | 504 kts | 168° |
| 2026-05-04 14:51 | 32.28888 | -83.88567 | 30594 ft | 505 kts | 169° |
| 2026-05-04 14:51 | 32.25507 | -83.87354 | 30959 ft | 504 kts | 169° |
| 2026-05-04 14:52 | 32.22125 | -83.86141 | 31331 ft | 503 kts | 169° |
| 2026-05-04 14:52 | 32.18760 | -83.84937 | 31552 ft | 505 kts | 169° |
| 2026-05-04 14:52 | 32.15334 | -83.83711 | 31944 ft | 503 kts | 169° |
| 2026-05-04 14:52 | 32.11990 | -83.82515 | 32269 ft | 502 kts | 169° |
| 2026-05-04 14:53 | 32.08606 | -83.81306 | 32477 ft | 504 kts | 169° |
| 2026-05-04 14:53 | 32.05217 | -83.80096 | 32735 ft | 504 kts | 169° |
| 2026-05-04 14:53 | 32.01832 | -83.78889 | 32911 ft | 506 kts | 170° |
| 2026-05-04 14:53 | 31.98466 | -83.77688 | 33252 ft | 504 kts | 169° |
| 2026-05-04 14:54 | 31.95044 | -83.76471 | 33382 ft | 507 kts | 170° |
| 2026-05-04 14:54 | 31.91696 | -83.75275 | 33787 ft | 503 kts | 170° |
| 2026-05-04 14:54 | 31.84833 | -83.72837 | 34150 ft | 505 kts | 170° |
| 2026-05-04 14:55 | 31.81397 | -83.71616 | 34375 ft | 506 kts | 170° |
| 2026-05-04 14:55 | 31.78009 | -83.70415 | 34591 ft | 505 kts | 170° |
| 2026-05-04 14:55 | 31.74597 | -83.69203 | 34779 ft | 505 kts | 171° |
| 2026-05-04 14:55 | 31.71242 | -83.68013 | 34991 ft | 502 kts | 171° |
| 2026-05-04 14:56 | 31.64519 | -83.65500 | 34994 ft | 506 kts | 169° |
| 2026-05-04 14:56 | 31.57824 | -83.62926 | 35002 ft | 508 kts | 169° |
| 2026-05-04 14:57 | 31.51063 | -83.60332 | 34999 ft | 506 kts | 169° |
| 2026-05-04 14:57 | 31.44301 | -83.57745 | 34991 ft | 508 kts | 169° |
| 2026-05-04 14:58 | 31.37560 | -83.55168 | 34998 ft | 508 kts | 169° |
| 2026-05-04 14:58 | 31.31906 | -83.53011 | 34994 ft | 508 kts | 169° |
| 2026-05-04 14:59 | 31.24043 | -83.50013 | 34985 ft | 509 kts | 169° |
| 2026-05-04 15:00 | 31.13888 | -83.46149 | 34988 ft | 507 kts | 170° |
| 2026-05-04 15:00 | 31.07136 | -83.43587 | 34989 ft | 509 kts | 170° |
| 2026-05-04 15:01 | 30.97010 | -83.39751 | 34994 ft | 511 kts | 170° |
| 2026-05-04 15:01 | 30.90195 | -83.37173 | 35001 ft | 509 kts | 170° |
| 2026-05-04 15:02 | 30.83385 | -83.34599 | 34992 ft | 506 kts | 171° |
| 2026-05-04 15:02 | 30.76609 | -83.32046 | 34983 ft | 507 kts | 171° |
| 2026-05-04 15:03 | 30.69881 | -83.29283 | 34992 ft | 515 kts | 163° |
| 2026-05-04 15:03 | 30.63315 | -83.25768 | 34983 ft | 516 kts | 163° |
| 2026-05-04 15:04 | 30.56783 | -83.22263 | 34977 ft | 516 kts | 163° |
| 2026-05-04 15:04 | 30.50218 | -83.18741 | 34975 ft | 517 kts | 163° |
| 2026-05-04 15:05 | 30.43688 | -83.15236 | 34974 ft | 515 kts | 162° |
| 2026-05-04 15:05 | 30.37164 | -83.11739 | 34972 ft | 515 kts | 163° |
| 2026-05-04 15:06 | 30.30599 | -83.08227 | 34970 ft | 515 kts | 163° |
| 2026-05-04 15:07 | 30.20765 | -83.02973 | 34963 ft | 515 kts | 162° |
| 2026-05-04 15:07 | 30.14250 | -82.99500 | 34967 ft | 516 kts | 162° |
| 2026-05-04 15:08 | 30.07694 | -82.96010 | 34972 ft | 516 kts | 162° |
| 2026-05-04 15:08 | 30.01168 | -82.92540 | 34971 ft | 514 kts | 162° |
| 2026-05-04 15:09 | 29.94595 | -82.89050 | 34964 ft | 515 kts | 162° |
| 2026-05-04 15:09 | 29.88058 | -82.85585 | 34962 ft | 516 kts | 162° |
| 2026-05-04 15:10 | 29.78244 | -82.80392 | 34964 ft | 515 kts | 162° |
| 2026-05-04 15:11 | 29.68403 | -82.75197 | 34959 ft | 515 kts | 162° |
| 2026-05-04 15:11 | 29.61910 | -82.71774 | 34960 ft | 514 kts | 162° |
| 2026-05-04 15:12 | 29.55344 | -82.68319 | 34963 ft | 514 kts | 162° |
| 2026-05-04 15:12 | 29.48841 | -82.64902 | 34963 ft | 516 kts | 162° |
| 2026-05-04 15:13 | 29.42265 | -82.61450 | 34956 ft | 513 kts | 163° |
| 2026-05-04 15:13 | 29.35754 | -82.58040 | 34964 ft | 515 kts | 162° |
| 2026-05-04 15:14 | 29.29216 | -82.54619 | 34967 ft | 514 kts | 163° |
| 2026-05-04 15:14 | 29.25889 | -82.53172 | 34974 ft | 503 kts | 172° |
| 2026-05-04 15:14 | 29.22466 | -82.52289 | 34976 ft | 494 kts | 179° |
| 2026-05-04 15:15 | 29.15679 | -82.50977 | 34968 ft | 495 kts | 179° |
| 2026-05-04 15:15 | 29.08838 | -82.49702 | 34969 ft | 494 kts | 179° |
| 2026-05-04 15:16 | 28.98578 | -82.47827 | 34970 ft | 493 kts | 179° |
| 2026-05-04 15:17 | 28.88318 | -82.45969 | 34965 ft | 492 kts | 179° |
| 2026-05-04 15:17 | 28.78058 | -82.44116 | 34966 ft | 493 kts | 179° |
| 2026-05-04 15:18 | 28.71302 | -82.42899 | 34965 ft | 493 kts | 179° |
| 2026-05-04 15:19 | 28.61090 | -82.41061 | 34962 ft | 493 kts | 179° |
| 2026-05-04 15:19 | 28.50860 | -82.39226 | 34958 ft | 493 kts | 179° |
| 2026-05-04 15:20 | 28.43996 | -82.37995 | 34955 ft | 491 kts | 179° |
| 2026-05-04 15:20 | 28.37219 | -82.36782 | 34960 ft | 493 kts | 179° |
| 2026-05-04 15:21 | 28.30437 | -82.35570 | 34958 ft | 491 kts | 179° |
| 2026-05-04 15:22 | 28.20271 | -82.33755 | 34940 ft | 490 kts | 180° |
| 2026-05-04 15:22 | 28.10110 | -82.31946 | 34938 ft | 491 kts | 180° |
| 2026-05-04 15:23 | 28.03291 | -82.30643 | 34938 ft | 497 kts | 174° |
| 2026-05-04 15:23 | 27.96636 | -82.28440 | 34933 ft | 499 kts | 172° |
| 2026-05-04 15:24 | 27.83176 | -82.23861 | 34926 ft | 502 kts | 171° |
| 2026-05-04 15:25 | 27.76416 | -82.21555 | 34915 ft | 502 kts | 171° |
| 2026-05-04 15:26 | 27.66384 | -82.18131 | 34906 ft | 498 kts | 171° |
| 2026-05-04 15:26 | 27.56315 | -82.14707 | 34906 ft | 502 kts | 171° |
| 2026-05-04 15:27 | 27.46304 | -82.11305 | 34904 ft | 499 kts | 172° |
| 2026-05-04 15:28 | 27.36279 | -82.07905 | 34902 ft | 500 kts | 171° |
| 2026-05-04 15:29 | 27.26244 | -82.04507 | 34901 ft | 499 kts | 171° |
| 2026-05-04 15:30 | 27.03047 | -81.95854 | 34920 ft | 510 kts | 161° |
| 2026-05-04 15:31 | 26.93405 | -81.90595 | 34919 ft | 510 kts | 161° |
| 2026-05-04 15:32 | 26.77416 | -81.81844 | 34913 ft | 509 kts | 161° |
| 2026-05-04 15:34 | 26.61427 | -81.73115 | 34916 ft | 507 kts | 161° |
| 2026-05-04 15:34 | 26.51832 | -81.67889 | 34912 ft | 507 kts | 161° |
| 2026-05-04 15:35 | 26.42294 | -81.62704 | 34908 ft | 506 kts | 161° |
| 2026-05-04 15:36 | 26.32775 | -81.57538 | 34902 ft | 505 kts | 161° |
| 2026-05-04 15:36 | 26.26411 | -81.54090 | 34890 ft | 504 kts | 161° |
| 2026-05-04 15:37 | 26.20106 | -81.50678 | 34890 ft | 501 kts | 161° |
| 2026-05-04 15:37 | 26.13842 | -81.47292 | 34893 ft | 502 kts | 161° |
| 2026-05-04 15:38 | 26.07368 | -81.44489 | 34908 ft | 492 kts | 171° |
| 2026-05-04 15:38 | 26.00811 | -81.42288 | 34895 ft | 491 kts | 170° |
| 2026-05-04 15:39 | 25.94249 | -81.40082 | 34888 ft | 491 kts | 170° |
| 2026-05-04 15:40 | 25.84432 | -81.36788 | 34885 ft | 490 kts | 170° |
| 2026-05-04 15:40 | 25.77899 | -81.34599 | 34882 ft | 489 kts | 171° |
| 2026-05-04 15:41 | 25.71386 | -81.32420 | 34872 ft | 488 kts | 171° |
| 2026-05-04 15:41 | 25.64857 | -81.30236 | 34870 ft | 487 kts | 171° |
| 2026-05-04 15:42 | 25.58397 | -81.28081 | 34870 ft | 487 kts | 171° |
| 2026-05-04 15:42 | 25.51874 | -81.25906 | 34871 ft | 489 kts | 171° |
| 2026-05-04 15:43 | 25.45339 | -81.23727 | 34872 ft | 486 kts | 171° |
| 2026-05-04 15:43 | 25.38899 | -81.21584 | 34865 ft | 484 kts | 171° |
| 2026-05-04 15:44 | 25.32455 | -81.19443 | 34868 ft | 485 kts | 171° |
| 2026-05-04 15:44 | 25.26010 | -81.17302 | 34861 ft | 481 kts | 171° |
| 2026-05-04 15:45 | 25.19557 | -81.15164 | 34869 ft | 483 kts | 171° |
| 2026-05-04 15:45 | 25.13106 | -81.13026 | 34864 ft | 481 kts | 171° |
| 2026-05-04 15:46 | 25.06708 | -81.10910 | 34877 ft | 483 kts | 171° |
| 2026-05-04 15:46 | 25.00259 | -81.08777 | 34877 ft | 483 kts | 171° |
| 2026-05-04 15:47 | 24.93818 | -81.06651 | 34873 ft | 483 kts | 171° |
| 2026-05-04 15:47 | 24.87342 | -81.04515 | 34874 ft | 481 kts | 171° |
| 2026-05-04 15:48 | 24.80937 | -81.02404 | 34880 ft | 480 kts | 172° |
| 2026-05-04 15:48 | 24.71334 | -81.01235 | 34887 ft | 458 kts | 189° |
| 2026-05-04 15:49 | 24.64903 | -81.01402 | 34878 ft | 459 kts | 189° |
| 2026-05-04 15:49 | 24.58509 | -81.01607 | 34877 ft | 459 kts | 190° |
| 2026-05-04 15:50 | 24.52118 | -81.01645 | 34876 ft | 460 kts | 188° |
| 2026-05-04 15:50 | 24.45691 | -81.01583 | 34867 ft | 458 kts | 188° |
| 2026-05-04 15:51 | 24.39332 | -81.01527 | 34866 ft | 459 kts | 187° |
| 2026-05-04 15:51 | 24.32916 | -81.01472 | 34865 ft | 458 kts | 188° |
| 2026-05-04 15:52 | 24.26546 | -81.01417 | 34855 ft | 458 kts | 188° |
| 2026-05-04 15:52 | 24.20159 | -81.01366 | 34865 ft | 457 kts | 187° |
| 2026-05-04 15:53 | 24.13802 | -81.01310 | 34866 ft | 458 kts | 188° |
| 2026-05-04 15:53 | 24.07430 | -81.01257 | 34843 ft | 453 kts | 187° |
| 2026-05-04 15:54 | 24.01135 | -81.01205 | 34840 ft | 455 kts | 187° |
| 2026-05-04 15:54 | 23.94764 | -81.00979 | 34843 ft | 455 kts | 186° |
| 2026-05-04 15:55 | 23.88418 | -81.00710 | 34840 ft | 457 kts | 186° |
| 2026-05-04 15:55 | 23.82006 | -81.00438 | 34842 ft | 459 kts | 186° |
| 2026-05-04 15:56 | 23.75571 | -81.00165 | 34844 ft | 458 kts | 186° |
| 2026-05-04 15:56 | 23.69219 | -80.99897 | 34852 ft | 457 kts | 186° |
| 2026-05-04 15:57 | 23.62836 | -80.99627 | 34848 ft | 457 kts | 186° |
| 2026-05-04 15:57 | 23.56512 | -80.99361 | 34857 ft | 456 kts | 186° |
| 2026-05-04 15:58 | 23.50143 | -80.99095 | 34853 ft | 456 kts | 186° |
| 2026-05-04 15:58 | 23.43742 | -80.98825 | 34851 ft | 459 kts | 186° |
| 2026-05-04 15:59 | 23.37378 | -80.98556 | 34846 ft | 458 kts | 185° |
| 2026-05-04 15:59 | 23.30974 | -80.98289 | 34846 ft | 457 kts | 185° |
| 2026-05-04 16:00 | 23.24631 | -80.98022 | 34848 ft | 458 kts | 186° |
| 2026-05-04 16:00 | 23.18254 | -80.97753 | 34850 ft | 458 kts | 186° |
| 2026-05-04 16:01 | 23.11865 | -80.97484 | 34839 ft | 456 kts | 185° |
| 2026-05-04 16:01 | 23.05511 | -80.97230 | 34839 ft | 454 kts | 188° |
| 2026-05-04 16:02 | 22.99434 | -80.98277 | 34853 ft | 437 kts | 205° |
| 2026-05-04 16:03 | 22.90786 | -81.01608 | 34848 ft | 437 kts | 206° |
| 2026-05-04 16:03 | 22.84996 | -81.03895 | 34847 ft | 438 kts | 206° |
| 2026-05-04 16:04 | 22.79240 | -81.06184 | 34848 ft | 437 kts | 206° |
| 2026-05-04 16:04 | 22.70651 | -81.09613 | 34852 ft | 438 kts | 207° |
| 2026-05-04 16:05 | 22.64933 | -81.11895 | 34849 ft | 433 kts | 207° |
| 2026-05-04 16:06 | 22.56357 | -81.15317 | 34846 ft | 435 kts | 206° |
| 2026-05-04 16:07 | 22.44884 | -81.19888 | 34856 ft | 437 kts | 207° |
| 2026-05-04 16:08 | 22.33401 | -81.24454 | 34857 ft | 439 kts | 207° |
| 2026-05-04 16:09 | 22.19006 | -81.30167 | 34853 ft | 438 kts | 206° |
| 2026-05-04 16:10 | 22.07485 | -81.34729 | 34853 ft | 437 kts | 206° |
| 2026-05-04 16:11 | 21.95983 | -81.39277 | 34855 ft | 441 kts | 206° |
| 2026-05-04 16:12 | 21.78646 | -81.46117 | 34858 ft | 441 kts | 206° |
| 2026-05-04 16:13 | 21.67098 | -81.50664 | 34856 ft | 442 kts | 206° |
| 2026-05-04 16:14 | 21.55926 | -81.55962 | 34852 ft | 435 kts | 214° |
| 2026-05-04 16:16 | 21.42615 | -81.63811 | 34851 ft | 435 kts | 214° |
| 2026-05-04 16:17 | 21.29299 | -81.71654 | 34865 ft | 437 kts | 214° |
| 2026-05-04 16:18 | 21.18567 | -81.77962 | 34862 ft | 437 kts | 214° |
| 2026-05-04 16:19 | 21.05194 | -81.85809 | 34866 ft | 437 kts | 214° |
| 2026-05-04 16:20 | 20.91802 | -81.93651 | 34884 ft | 439 kts | 213° |
| 2026-05-04 16:22 | 20.78377 | -82.01494 | 34863 ft | 440 kts | 214° |
| 2026-05-04 16:23 | 20.62218 | -82.10915 | 34860 ft | 441 kts | 214° |
| 2026-05-04 16:24 | 20.51450 | -82.17180 | 35017 ft | 437 kts | 214° |
| 2026-05-04 16:25 | 20.46072 | -82.20306 | 35017 ft | 440 kts | 214° |
| 2026-05-04 16:26 | 20.27220 | -82.31241 | 35016 ft | 440 kts | 214° |
| 2026-05-04 16:28 | 20.13759 | -82.39030 | 35007 ft | 439 kts | 214° |
| 2026-05-04 16:28 | 20.05060 | -82.42454 | 35009 ft | 453 kts | 198° |
| 2026-05-04 16:29 | 19.92703 | -82.45322 | 35000 ft | 452 kts | 198° |
| 2026-05-04 16:31 | 19.77249 | -82.48838 | 34998 ft | 453 kts | 198° |
| 2026-05-04 16:32 | 19.58720 | -82.53033 | 34995 ft | 454 kts | 198° |
| 2026-05-04 16:33 | 19.46352 | -82.55828 | 34992 ft | 454 kts | 198° |
| 2026-05-04 16:34 | 19.37060 | -82.57925 | 34995 ft | 454 kts | 197° |
| 2026-05-04 16:35 | 19.18492 | -82.62107 | 35002 ft | 455 kts | 198° |
| 2026-05-04 16:36 | 19.09218 | -82.64193 | 35001 ft | 455 kts | 198° |
| 2026-05-04 16:37 | 18.99889 | -82.66288 | 35012 ft | 456 kts | 197° |
| 2026-05-04 16:38 | 18.87578 | -82.69049 | 35009 ft | 456 kts | 197° |
| 2026-05-04 16:39 | 18.72046 | -82.72527 | 35006 ft | 457 kts | 197° |
| 2026-05-04 16:40 | 18.59632 | -82.75301 | 35003 ft | 455 kts | 197° |
| 2026-05-04 16:41 | 18.44067 | -82.78775 | 35001 ft | 455 kts | 196° |
| 2026-05-04 16:43 | 18.29537 | -82.82011 | 34998 ft | 456 kts | 196° |
| 2026-05-04 16:43 | 18.19178 | -82.84316 | 34996 ft | 456 kts | 196° |
| 2026-05-04 16:45 | 18.00467 | -82.88472 | 35010 ft | 457 kts | 196° |
| 2026-05-04 16:46 | 17.84890 | -82.91923 | 35008 ft | 456 kts | 196° |
| 2026-05-04 16:47 | 17.72391 | -82.94688 | 35004 ft | 457 kts | 195° |
| 2026-05-04 16:48 | 17.59866 | -82.97456 | 34993 ft | 457 kts | 195° |
| 2026-05-04 16:49 | 17.47398 | -83.00208 | 34993 ft | 457 kts | 195° |
| 2026-05-04 16:50 | 17.34903 | -83.02960 | 34995 ft | 458 kts | 195° |
| 2026-05-04 16:51 | 17.25467 | -83.05036 | 34990 ft | 457 kts | 195° |
| 2026-05-04 16:52 | 17.12981 | -83.07780 | 34990 ft | 458 kts | 195° |
| 2026-05-04 16:53 | 17.03601 | -83.09840 | 34988 ft | 457 kts | 195° |
| 2026-05-04 16:54 | 16.91088 | -83.12583 | 34987 ft | 459 kts | 195° |
| 2026-05-04 16:55 | 16.72243 | -83.16708 | 34988 ft | 460 kts | 195° |
| 2026-05-04 16:56 | 16.56500 | -83.20148 | 34987 ft | 461 kts | 194° |
| 2026-05-04 16:57 | 16.47038 | -83.22212 | 34987 ft | 461 kts | 194° |
| 2026-05-04 16:58 | 16.34383 | -83.24970 | 34985 ft | 462 kts | 194° |
| 2026-05-04 17:00 | 16.15407 | -83.29099 | 34985 ft | 462 kts | 194° |
| 2026-05-04 17:01 | 15.99579 | -83.32604 | 34986 ft | 463 kts | 195° |
| 2026-05-04 17:02 | 15.86933 | -83.35487 | 34973 ft | 463 kts | 194° |
| 2026-05-04 17:03 | 15.77487 | -83.37637 | 34973 ft | 463 kts | 194° |
| 2026-05-04 17:03 | 15.68015 | -83.39792 | 34969 ft | 464 kts | 194° |
| 2026-05-04 17:04 | 15.55410 | -83.42656 | 34963 ft | 464 kts | 194° |
| 2026-05-04 17:05 | 15.42770 | -83.45525 | 34960 ft | 464 kts | 194° |
| 2026-05-04 17:06 | 15.33256 | -83.47681 | 34960 ft | 464 kts | 194° |
| 2026-05-04 17:07 | 15.25885 | -83.49350 | 34956 ft | 463 kts | 194° |
| 2026-05-04 17:07 | 15.17461 | -83.51257 | 34958 ft | 463 kts | 194° |
| 2026-05-04 17:08 | 15.07952 | -83.53407 | 34958 ft | 463 kts | 194° |
| 2026-05-04 17:09 | 15.01631 | -83.54836 | 34956 ft | 464 kts | 194° |
| 2026-05-04 17:09 | 14.95333 | -83.56258 | 34953 ft | 464 kts | 194° |
| 2026-05-04 17:10 | 14.79464 | -83.59838 | 34958 ft | 463 kts | 194° |
| 2026-05-04 17:11 | 14.73146 | -83.61262 | 34958 ft | 463 kts | 194° |
| 2026-05-04 17:12 | 14.63656 | -83.63398 | 34957 ft | 463 kts | 194° |
| 2026-05-04 17:13 | 14.47812 | -83.66962 | 34949 ft | 464 kts | 194° |
| 2026-05-04 17:14 | 14.35167 | -83.69802 | 34944 ft | 463 kts | 194° |
| 2026-05-04 17:15 | 14.25673 | -83.71932 | 34936 ft | 463 kts | 194° |
| 2026-05-04 17:16 | 14.13028 | -83.74768 | 34945 ft | 463 kts | 194° |
| 2026-05-04 17:17 | 14.00394 | -83.77596 | 34953 ft | 464 kts | 194° |
| 2026-05-04 17:18 | 13.88775 | -83.80196 | 34947 ft | 464 kts | 194° |
| 2026-05-04 17:19 | 13.75050 | -83.83261 | 34940 ft | 463 kts | 194° |
| 2026-05-04 17:20 | 13.62394 | -83.86086 | 34931 ft | 464 kts | 194° |
| 2026-05-04 17:20 | 13.53928 | -83.87974 | 34934 ft | 465 kts | 193° |
| 2026-05-04 17:21 | 13.40182 | -83.91035 | 34926 ft | 465 kts | 193° |
| 2026-05-04 17:22 | 13.33871 | -83.92440 | 34922 ft | 464 kts | 193° |
| 2026-05-04 17:23 | 13.21201 | -83.95258 | 34925 ft | 464 kts | 193° |
| 2026-05-04 17:24 | 13.11689 | -83.97370 | 34932 ft | 466 kts | 193° |
| 2026-05-04 17:25 | 12.98980 | -84.00192 | 34937 ft | 465 kts | 193° |
| 2026-05-04 17:26 | 12.86304 | -84.03002 | 34931 ft | 464 kts | 193° |
| 2026-05-04 17:27 | 12.71523 | -84.06276 | 34928 ft | 464 kts | 193° |
| 2026-05-04 17:28 | 12.58869 | -84.09075 | 34929 ft | 465 kts | 193° |
| 2026-05-04 17:29 | 12.38847 | -84.13500 | 34928 ft | 464 kts | 193° |
| 2026-05-04 17:31 | 12.23004 | -84.16995 | 34918 ft | 464 kts | 193° |
| 2026-05-04 17:32 | 12.07151 | -84.20490 | 34915 ft | 464 kts | 193° |
| 2026-05-04 17:33 | 11.94437 | -84.23289 | 34919 ft | 464 kts | 193° |
| 2026-05-04 17:34 | 11.82805 | -84.25848 | 34930 ft | 463 kts | 193° |
| 2026-05-04 17:35 | 11.65875 | -84.29568 | 34934 ft | 463 kts | 193° |
| 2026-05-04 17:36 | 11.59516 | -84.30963 | 34930 ft | 463 kts | 193° |
| 2026-05-04 17:36 | 11.53215 | -84.32346 | 34929 ft | 463 kts | 193° |
| 2026-05-04 17:37 | 11.46860 | -84.33740 | 34929 ft | 463 kts | 193° |
| 2026-05-04 17:37 | 11.40574 | -84.35117 | 34935 ft | 463 kts | 192° |
| 2026-05-04 17:38 | 11.34213 | -84.36511 | 34938 ft | 463 kts | 192° |
| 2026-05-04 17:38 | 11.31020 | -84.37211 | 34391 ft | 469 kts | 192° |
| 2026-05-04 17:38 | 11.27857 | -84.37904 | 33773 ft | 464 kts | 192° |
| 2026-05-04 17:38 | 11.24696 | -84.38596 | 33161 ft | 457 kts | 192° |
| 2026-05-04 17:39 | 11.18470 | -84.39959 | 32068 ft | 459 kts | 192° |
| 2026-05-04 17:39 | 11.15333 | -84.40645 | 31538 ft | 464 kts | 192° |
| 2026-05-04 17:39 | 11.12149 | -84.41341 | 30987 ft | 467 kts | 192° |
| 2026-05-04 17:40 | 11.08950 | -84.42040 | 30421 ft | 468 kts | 193° |
| 2026-05-04 17:40 | 11.05747 | -84.42741 | 29848 ft | 469 kts | 193° |
| 2026-05-04 17:40 | 11.03585 | -84.43213 | 29459 ft | 470 kts | 193° |
| 2026-05-04 17:40 | 11.00404 | -84.43907 | 28879 ft | 470 kts | 193° |
| 2026-05-04 17:41 | 10.96142 | -84.44837 | 28094 ft | 466 kts | 193° |
| 2026-05-04 17:41 | 10.92941 | -84.45537 | 27506 ft | 461 kts | 193° |
| 2026-05-04 17:41 | 10.90848 | -84.45994 | 27123 ft | 458 kts | 193° |
| 2026-05-04 17:41 | 10.86704 | -84.46899 | 26371 ft | 451 kts | 193° |
| 2026-05-04 17:42 | 10.83579 | -84.47581 | 25807 ft | 448 kts | 193° |
| 2026-05-04 17:42 | 10.81554 | -84.48023 | 25441 ft | 447 kts | 193° |
| 2026-05-04 17:42 | 10.78509 | -84.48688 | 24885 ft | 444 kts | 193° |
| 2026-05-04 17:42 | 10.75511 | -84.49342 | 24332 ft | 441 kts | 193° |
| 2026-05-04 17:43 | 10.71470 | -84.50223 | 23584 ft | 435 kts | 193° |
| 2026-05-04 17:43 | 10.68497 | -84.50871 | 23034 ft | 432 kts | 193° |
| 2026-05-04 17:43 | 10.65570 | -84.51510 | 22494 ft | 429 kts | 193° |
| 2026-05-04 17:43 | 10.62804 | -84.52113 | 22001 ft | 427 kts | 193° |
| 2026-05-04 17:44 | 10.60389 | -84.52640 | 21579 ft | 426 kts | 193° |
| 2026-05-04 17:44 | 10.57462 | -84.53278 | 21051 ft | 424 kts | 193° |
| 2026-05-04 17:44 | 10.54574 | -84.53907 | 20521 ft | 420 kts | 193° |
| 2026-05-04 17:44 | 10.51740 | -84.54524 | 19986 ft | 416 kts | 192° |
| 2026-05-04 17:45 | 10.48915 | -84.55140 | 19479 ft | 412 kts | 193° |
| 2026-05-04 17:45 | 10.46092 | -84.55756 | 18987 ft | 408 kts | 192° |
| 2026-05-04 17:45 | 10.43333 | -84.56355 | 18513 ft | 406 kts | 192° |
| 2026-05-04 17:45 | 10.40569 | -84.56956 | 18029 ft | 403 kts | 192° |
| 2026-05-04 17:46 | 10.37797 | -84.57560 | 17479 ft | 402 kts | 192° |
| 2026-05-04 17:46 | 10.35064 | -84.58155 | 16939 ft | 398 kts | 192° |
| 2026-05-04 17:46 | 10.33253 | -84.58549 | 16582 ft | 396 kts | 192° |
| 2026-05-04 17:46 | 10.29691 | -84.59325 | 15892 ft | 391 kts | 192° |
| 2026-05-04 17:47 | 10.27014 | -84.59905 | 15377 ft | 388 kts | 192° |
| 2026-05-04 17:47 | 10.24379 | -84.60480 | 15015 ft | 376 kts | 191° |
| 2026-05-04 17:47 | 10.21936 | -84.61012 | 14972 ft | 344 kts | 192° |
| 2026-05-04 17:47 | 10.19686 | -84.61502 | 15019 ft | 320 kts | 191° |
| 2026-05-04 17:48 | 10.17484 | -84.61974 | 14992 ft | 321 kts | 189° |
| 2026-05-04 17:48 | 10.15263 | -84.62070 | 15001 ft | 324 kts | 171° |
| 2026-05-04 17:48 | 10.13776 | -84.61746 | 14912 ft | 327 kts | 160° |
| 2026-05-04 17:48 | 10.11036 | -84.60339 | 14300 ft | 330 kts | 148° |
| 2026-05-04 17:49 | 10.09071 | -84.59155 | 13798 ft | 324 kts | 148° |
| 2026-05-04 17:49 | 10.07153 | -84.58003 | 13429 ft | 313 kts | 148° |
| 2026-05-04 17:49 | 10.05321 | -84.56892 | 13155 ft | 303 kts | 145° |
| 2026-05-04 17:49 | 10.03729 | -84.55486 | 12775 ft | 302 kts | 128° |
| 2026-05-04 17:50 | 10.02441 | -84.53806 | 12462 ft | 302 kts | 126° |
| 2026-05-04 17:50 | 10.01149 | -84.52119 | 12140 ft | 301 kts | 126° |
| 2026-05-04 17:50 | 9.99863 | -84.50425 | 11808 ft | 299 kts | 126° |
| 2026-05-04 17:50 | 9.98601 | -84.48756 | 11454 ft | 297 kts | 126° |
| 2026-05-04 17:51 | 9.97356 | -84.47102 | 11097 ft | 296 kts | 126° |
| 2026-05-04 17:51 | 9.96106 | -84.45440 | 10744 ft | 294 kts | 126° |
| 2026-05-04 17:51 | 9.94868 | -84.43793 | 10417 ft | 293 kts | 126° |
| 2026-05-04 17:51 | 9.93625 | -84.42139 | 10018 ft | 296 kts | 126° |
| 2026-05-04 17:52 | 9.92411 | -84.40524 | 9764 ft | 280 kts | 126° |
| 2026-05-04 17:52 | 9.91258 | -84.38991 | 9623 ft | 268 kts | 126° |
| 2026-05-04 17:52 | 9.90113 | -84.37464 | 9644 ft | 271 kts | 125° |
| 2026-05-04 17:52 | 9.88974 | -84.35950 | 9621 ft | 260 kts | 125° |
| 2026-05-04 17:53 | 9.87910 | -84.34499 | 9447 ft | 253 kts | 118° |
| 2026-05-04 17:53 | 9.87374 | -84.32807 | 9008 ft | 253 kts | 88° |
| 2026-05-04 17:53 | 9.87709 | -84.31097 | 8819 ft | 245 kts | 71° |
| 2026-05-04 17:53 | 9.88266 | -84.29480 | 8633 ft | 239 kts | 71° |
| 2026-05-04 17:54 | 9.88807 | -84.27917 | 8494 ft | 233 kts | 70° |
| 2026-05-04 17:54 | 9.89174 | -84.26884 | 8400 ft | 234 kts | 70° |
| 2026-05-04 17:54 | 9.89940 | -84.24777 | 8115 ft | 245 kts | 70° |
| 2026-05-04 17:54 | 9.90544 | -84.23132 | 7875 ft | 250 kts | 70° |
| 2026-05-04 17:55 | 9.91145 | -84.21478 | 7639 ft | 251 kts | 70° |
| 2026-05-04 17:55 | 9.91554 | -84.20358 | 7428 ft | 252 kts | 70° |
| 2026-05-04 17:55 | 9.92363 | -84.18147 | 6997 ft | 248 kts | 71° |
| 2026-05-04 17:55 | 9.92938 | -84.16580 | 6911 ft | 227 kts | 71° |
| 2026-05-04 17:56 | 9.93478 | -84.15106 | 6644 ft | 215 kts | 72° |
| 2026-05-04 17:56 | 9.93983 | -84.13732 | 6488 ft | 197 kts | 73° |
| 2026-05-04 17:56 | 9.94432 | -84.12489 | 6242 ft | 176 kts | 74° |
| 2026-05-04 17:56 | 9.94893 | -84.11418 | 6028 ft | 162 kts | 60° |
| 2026-05-04 17:57 | 9.95638 | -84.10587 | 5928 ft | 160 kts | 39° |
| 2026-05-04 17:57 | 9.96648 | -84.09990 | 5792 ft | 172 kts | 22° |
| 2026-05-04 17:57 | 9.97790 | -84.09727 | 5565 ft | 162 kts | 3° |
| 2026-05-04 17:57 | 9.98889 | -84.09821 | 5433 ft | 156 kts | 347° |
| 2026-05-04 17:58 | 9.99910 | -84.10203 | 5202 ft | 159 kts | 332° |
| 2026-05-04 17:58 | 10.00530 | -84.10610 | 5039 ft | 158 kts | 321° |
| 2026-05-04 17:58 | 10.01497 | -84.11716 | 4755 ft | 156 kts | 298° |
| 2026-05-04 17:58 | 10.01926 | -84.12711 | 4555 ft | 154 kts | 281° |
| 2026-05-04 17:59 | 10.02077 | -84.13766 | 4322 ft | 149 kts | 263° |
| 2026-05-04 17:59 | 10.01747 | -84.14751 | 4161 ft | 151 kts | 241° |
| 2026-05-04 17:59 | 10.00977 | -84.16677 | 3810 ft | 146 kts | 244° |
| 2026-05-04 18:00 | 10.00727 | -84.17325 | 3672 ft | 146 kts | 244° |
| 2026-05-04 18:00 | 10.00359 | -84.18283 | 3485 ft | 145 kts | 246° |
| 2026-05-04 18:00 | 9.99891 | -84.19539 | 3204 ft | 140 kts | 247° |
| 2026-05-04 18:00 | 9.99553 | -84.20444 | 3100 ft | 129 kts | 248° |
| 2026-05-04 18:01 | 9.99303 | -84.21111 | 3096 ft | 77 kts | 249° |
| 2026-05-04 18:01 | 9.99143 | -84.21541 | 3094 ft | 37 kts | 249° |
| 2026-05-04 18:01 | 9.99143 | -84.21700 | 3093 ft | 19 kts | 2° |
| 2026-05-04 18:02 | 9.99254 | -84.21499 | 3094 ft | 14 kts | 69° |
| 2026-05-04 18:02 | 9.99278 | -84.21439 | 3095 ft | 13 kts | 68° |
| 2026-05-04 18:02 | 9.99329 | -84.21301 | 3095 ft | 19 kts | 69° |
| 2026-05-04 18:02 | 9.99387 | -84.21148 | 3096 ft | 25 kts | 70° |
| 2026-05-04 18:03 | 9.99449 | -84.20981 | 3097 ft | 24 kts | 69° |
| 2026-05-04 18:03 | 9.99510 | -84.20821 | 3097 ft | 23 kts | 69° |
| 2026-05-04 18:03 | 9.99567 | -84.20670 | 3098 ft | 22 kts | 69° |
| 2026-05-04 18:03 | 9.99621 | -84.20524 | 3099 ft | 21 kts | 69° |
| 2026-05-04 18:04 | 9.99672 | -84.20389 | 3099 ft | 20 kts | 71° |
| 2026-05-04 18:04 | 9.99691 | -84.20338 | 3100 ft | 7 kts | 69° |
| 2026-05-04 18:04 | 9.99757 | -84.20162 | 3100 ft | 16 kts | 68° |
| 2026-05-04 18:05 | 9.99784 | -84.20125 | 3100 ft | 4 kts | 12° |
| 2026-05-04 18:05 | 9.99818 | -84.20131 | 3101 ft | 4 kts | 337° |
| 2026-05-04 18:05 | 9.99828 | -84.20135 | 3101 ft | 2 kts | 338° |
| 2026-05-04 18:05 | 9.99850 | -84.20144 | 3100 ft | 1 kts | 338° |
| 2026-05-04 18:06 | 9.99851 | -84.20144 | 3100 ft | 0 kts | 338° |